Sign-in with your pilot id or email, or register

ICAO: LBSF Name / Country: Sofia / Bulgaria
Latitude: 42.6952 Longitude: 23.4062
Total Arrivals:
Strict Standards: Non-static method AirportData::getarrflights() should not be called statically, assuming $this from incompatible context in /var/www/customers/vh-7192/web/home/phpvms/core/templates/airport_info.tpl on line 18
1
Total Departures:
Strict Standards: Non-static method AirportData::getdeptflights() should not be called statically, assuming $this from incompatible context in /var/www/customers/vh-7192/web/home/phpvms/core/templates/airport_info.tpl on line 21
0
Latest Arrival: MTA11P (CHART (LHBP-LBSF) Tibor Berces Latest Departure: (-)
Metar: LBSF 251600Z VRB01KT 9999 FEW080 24/12 Q1006 NOSIG
More info

Charts for LBSF


NOTAM


Warning: file_get_contents(http://api.vateud.net/notams/LBSF.json): failed to open stream: Redirection limit reached, aborting in /var/www/customers/vh-7192/web/home/phpvms/core/common/NOTAMSData.class.php on line 18

Warning: Invalid argument supplied for foreach() in /var/www/customers/vh-7192/web/home/phpvms/core/common/NOTAMSData.class.php on line 22

Sofia